Latest Weather Observations for Cabramurra

IDN60901

Issued at 11:51 pm EDT Sunday 7 February 2016 (issued every 10 minutes, with the page automatically refreshed every 10 minutes)

About weather observations | Map of Canberra area stations | Latest observations for Canberra area | Other Formats
Station Details ID: 072161 Name: CABRAMURRA SMHEA AWS Lat: -35.94 Lon: 148.38 Height: 1482.4 m
Data from the previous 72 hours. | See also: Recent months at Cabramurra
Date/Time
EDT
Tmp

°C
App
Tmp
°C
Dew
Point
°C
Rel
Hum
%
Delta-T

°C
Wind Press
QNH
hPa
Press
MSL
hPa
Rain
since
9 am
mm
Dir
 
Spd
km/h
Gust
km/h
Spd
kts
Gust
kts
07/11:30pm 15.8 9.3 8.1 60 4.2 SE 32 46 17 25 - - 0.0
07/11:17pm 16.1 10.0 8.3 60 4.3 SE 30 48 16 26 - - 0.0
07/11:00pm 16.0 12.2 12.4 79 2.1 ESE 24 32 13 17 - - 0.0
07/10:30pm 16.4 13.1 12.8 79 2.1 ESE 22 33 12 18 - - 0.0
07/10:00pm 16.4 13.0 11.3 72 3.0 ESE 20 26 11 14 - - 0.0
07/09:30pm 17.2 13.4 11.0 67 3.6 ESE 22 30 12 16 - - 0.0
07/09:00pm 17.8 14.0 9.9 60 4.5 ESE 20 30 11 16 - - 0.0
07/08:30pm 18.3 14.8 8.8 54 5.3 ESE 17 24 9 13 - - 0.0
07/08:00pm 19.0 16.2 6.8 45 6.6 ESE 11 17 6 9 - - 0.0
07/07:30pm 19.6 17.1 6.7 43 7.0 ESE 9 15 5 8 - - 0.0
07/07:00pm 20.5 18.4 6.8 41 7.5 E 7 17 4 9 - - 0.0
07/06:30pm 21.2 20.9 12.6 58 5.2 WNW 6 13 3 7 - - 0.0
07/06:00pm 20.8 20.4 14.2 66 4.1 SW 9 13 5 7 - - 0.0
07/05:30pm 19.3 19.0 13.3 68 3.7 S 7 9 4 5 - - 0.0
07/05:00pm 20.6 19.5 12.1 58 5.1 SW 9 17 5 9 - - 0.0
07/04:30pm 21.7 19.7 12.8 57 5.4 W 15 24 8 13 - - 0.0
07/04:00pm 21.0 19.0 11.6 55 5.6 W 13 22 7 12 - - 0.0
07/03:30pm 21.2 19.5 12.6 58 5.2 W 13 20 7 11 - - 0.0
07/03:00pm 20.4 17.9 11.1 55 5.5 W 15 20 8 11 - - 0.0
07/02:30pm 19.8 17.7 11.0 57 5.2 W 13 20 7 11 - - 0.0
07/02:00pm 19.9 18.0 11.7 59 4.9 W 13 20 7 11 - - 0.0
07/01:30pm 19.0 16.7 11.8 63 4.3 WNW 15 20 8 11 - - 0.0
07/01:00pm 18.4 15.8 10.8 61 4.4 WNW 15 22 8 12 - - 0.0
07/12:30pm 18.3 16.3 11.4 64 4.0 NW 13 20 7 11 - - 0.0
07/12:00pm 18.2 16.7 12.0 67 3.7 WNW 11 17 6 9 - - 0.0
07/11:30am 17.8 16.3 10.7 63 4.1 WNW 9 13 5 7 - - 0.0
07/11:00am 17.3 15.5 10.9 66 3.7 WNW 11 15 6 8 - - 0.0
07/10:30am 18.0 16.1 6.8 48 6.0 WSW 6 9 3 5 - - 0.0
07/10:00am 18.4 15.8 6.3 45 6.5 SE 9 15 5 8 - - 0.0
07/09:30am 17.2 13.6 5.2 45 6.2 SE 13 17 7 9 - - 0.0
07/09:00am 16.7 13.0 4.7 45 6.2 SE 13 20 7 11 - - 0.0
07/08:30am 16.1 12.7 4.2 45 6.0 SE 11 19 6 10 - - 0.0
07/08:00am 15.3 12.1 5.0 50 5.3 ESE 11 19 6 10 - - 0.0
07/07:30am 14.2 11.9 7.3 63 3.7 SE 9 17 5 9 - - 0.0
07/07:00am 13.3 11.2 8.2 71 2.7 S 9 15 5 8 - - 0.0
07/06:30am 13.2 10.1 7.2 67 3.2 SSE 13 22 7 12 - - 0.0
07/06:00am 12.8 9.8 7.5 70 2.8 SSE 13 17 7 9 - - 0.0
07/05:30am 12.5 9.5 7.6 72 2.6 S 13 20 7 11 - - 0.0
07/05:00am 13.0 10.0 7.5 69 2.9 S 13 19 7 10 - - 0.0
07/04:30am 13.4 10.0 7.6 68 3.1 S 15 20 8 11 - - 0.0
07/04:00am 13.5 10.2 7.9 69 3.0 S 15 20 8 11 - - 0.0
07/03:30am 13.1 10.6 8.0 71 2.7 S 11 17 6 9 - - 0.0
07/03:00am 13.0 11.0 8.5 74 2.4 S 9 13 5 7 - - 0.0
07/02:30am 12.9 10.6 9.0 77 2.1 S 11 13 6 7 - - 0.0
07/02:00am 13.1 11.3 9.4 78 2.0 S 9 11 5 6 - - 0.0
07/01:30am 13.0 10.8 9.4 79 2.0 SSW 11 13 6 7 - - 0.0
07/01:00am 13.4 11.7 9.8 79 2.0 S 9 11 5 6 - - 0.0
07/12:30am 13.6 12.3 10.0 79 2.0 SSE 7 9 4 5 - - 0.0
07/12:00am 13.5 11.8 9.9 79 2.0 SSE 9 11 5 6 - - 0.0
 
Date/Time
EDT
Tmp

°C
App
Tmp
°C
Dew
Point
°C
Rel
Hum
%
Delta-T

°C
Wind Press
QNH
hPa
Press
MSL
hPa
Rain
since
9 am
mm
Dir
 
Spd
km/h
Gust
km/h
Spd
kts
Gust
kts
06/11:30pm 13.3 11.7 10.3 82 1.7 SE 9 13 5 7 - - 0.0
06/11:00pm 13.5 12.0 10.5 82 1.7 ESE 9 11 5 6 - - 0.0
06/10:30pm 13.8 12.3 10.6 81 1.8 SE 9 11 5 6 - - 0.0
06/10:00pm 14.2 12.4 10.8 80 1.9 ESE 11 17 6 9 - - 0.0
06/09:30pm 14.8 12.5 10.6 76 2.4 ESE 13 19 7 10 - - 0.0
06/09:00pm 15.4 11.4 10.4 72 2.8 E 22 28 12 15 - - 0.0
06/08:30pm 16.3 12.4 9.5 64 3.8 E 20 24 11 13 - - 0.0
06/08:00pm 17.2 14.9 9.1 59 4.5 E 11 15 6 8 - - 0.0
06/07:30pm 18.0 17.3 10.1 60 4.5 SW 4 7 2 4 - - 0.0
06/07:00pm 18.3 17.0 9.9 58 4.8 WSW 7 13 4 7 - - 0.0
06/06:30pm 20.6 19.0 11.5 56 5.4 WSW 11 19 6 10 - - 0.0
06/06:00pm 19.0 17.1 10.6 58 4.9 WSW 11 15 6 8 - - 0.0
06/05:30pm 18.9 17.3 10.2 57 5.0 NW 9 17 5 9 - - 0.0
06/05:00pm 19.9 17.6 10.6 55 5.4 WNW 13 20 7 11 - - 0.0
06/04:30pm 19.5 17.4 11.0 58 5.0 WNW 13 19 7 10 - - 0.0
06/04:00pm 20.6 19.8 11.0 54 5.7 WSW 6 13 3 7 - - 0.0
06/03:30pm 19.4 17.0 10.1 55 5.4 WNW 13 20 7 11 - - 0.0
06/03:00pm 20.6 18.8 10.7 53 5.8 W 11 19 6 10 - - 0.0
06/02:30pm 19.7 16.8 10.9 57 5.1 W 17 24 9 13 - - 0.0
06/02:00pm 19.7 16.9 8.7 49 6.2 NNW 13 24 7 13 - - 0.0
06/01:30pm 20.1 17.1 6.1 40 7.5 N 11 20 6 11 - - 0.0
06/01:00pm 18.7 16.5 9.2 54 5.4 W 11 19 6 10 - - 0.0
06/12:30pm 19.0 17.3 10.0 56 5.2 NNE 9 24 5 13 - - 0.0
06/12:00pm 17.1 13.9 8.3 56 4.9 ENE 15 28 8 15 - - 0.0
06/11:30am 16.4 12.2 8.1 58 4.5 ENE 20 32 11 17 - - 0.0
06/11:00am 16.6 12.7 7.0 53 5.1 ENE 17 24 9 13 - - 0.0
06/10:30am 15.6 11.7 6.9 56 4.6 E 17 32 9 17 - - 0.0
06/10:00am 13.8 7.5 7.3 65 3.4 ESE 30 41 16 22 - - 0.0
06/09:30am 13.1 7.0 8.4 73 2.5 ESE 30 43 16 23 - - 0.0
06/09:00am 11.9 4.5 8.2 78 2.0 ESE 37 50 20 27 - - 0.0
06/08:30am 10.6 2.4 8.4 86 1.2 ESE 41 56 22 30 - - 0.0
06/08:00am 10.2 1.1 8.3 88 1.0 ESE 46 59 25 32 - - 0.0
06/07:30am 9.6 -0.6 8.4 92 0.6 ESE 52 67 28 36 - - 0.0
06/07:00am 9.4 -1.2 8.3 93 0.6 ESE 54 65 29 35 - - 0.0
06/06:40am 9.5 0.0 8.4 93 0.6 ESE 48 67 26 36 - - 0.0
06/06:30am 9.4 -0.1 8.2 92 0.6 ESE 48 65 26 35 - - 0.0
06/06:00am 9.4 -0.1 8.2 92 0.6 ESE 48 69 26 37 - - 0.0
06/05:30am 9.4 0.2 8.0 91 0.7 ESE 46 70 25 38 - - 0.0
06/05:01am 9.2 1.4 8.1 93 0.6 ESE 39 57 21 31 - - 0.0
06/05:00am 9.3 1.5 8.2 93 0.6 ESE 39 54 21 29 - - 0.0
06/04:30am 9.4 2.2 7.8 90 0.8 ESE 35 54 19 29 - - 0.0
06/04:01am 9.6 3.0 8.4 92 0.6 ESE 33 52 18 28 - - 0.0
06/04:00am 9.6 2.6 8.4 92 0.6 ESE 35 52 19 28 - - 0.0
06/03:30am 9.5 2.2 8.6 94 0.5 ESE 37 63 20 34 - - 0.0
06/03:21am 9.5 2.5 8.6 94 0.5 ESE 35 54 19 29 - - 0.0
06/03:00am 9.4 2.4 8.5 94 0.5 ESE 35 52 19 28 - - 0.0
06/02:30am 9.3 2.2 7.9 91 0.7 ESE 35 54 19 29 - - 0.0
06/02:03am 9.4 3.1 7.5 88 1.0 ESE 30 48 16 26 - - 0.0
06/02:00am 9.4 2.7 7.5 88 1.0 ESE 32 48 17 26 - - 0.0
06/01:30am 9.4 1.3 7.2 86 1.1 ESE 39 59 21 32 - - 0.0
06/01:00am 9.5 1.5 7.4 87 1.1 ESE 39 59 21 32 - - 0.0
06/12:30am 9.5 1.5 7.4 87 1.1 ESE 39 59 21 32 - - 0.0
06/12:00am 9.8 2.2 7.7 87 1.1 ESE 37 57 20 31 - - 0.0
 
Date/Time
EDT
Tmp

°C
App
Tmp
°C
Dew
Point
°C
Rel
Hum
%
Delta-T

°C
Wind Press
QNH
hPa
Press
MSL
hPa
Rain
since
9 am
mm
Dir
 
Spd
km/h
Gust
km/h
Spd
kts
Gust
kts
05/11:30pm 10.0 3.5 8.3 89 0.9 ESE 32 50 17 27 - - 0.0
05/11:01pm 10.4 4.7 8.3 87 1.1 SE 28 50 15 27 - - 0.0
05/11:00pm 10.3 4.9 8.1 86 1.2 SE 26 43 14 23 - - 0.0
05/10:30pm 10.3 5.8 8.4 88 1.0 SE 22 35 12 19 - - 0.0
05/10:00pm 10.5 4.5 8.8 89 0.9 ESE 30 46 16 25 - - 0.0
05/09:30pm 10.8 4.4 8.7 87 1.1 ESE 32 44 17 24 - - 0.0
05/09:00pm 11.1 3.2 8.0 81 1.6 ESE 39 56 21 30 - - 0.0
05/08:54pm 11.4 3.9 7.9 79 1.9 ESE 37 56 20 30 - - 0.0
05/08:30pm 11.7 4.5 7.8 77 2.1 ESE 35 48 19 26 - - 0.0
05/08:16pm 12.0 6.2 8.1 77 2.1 ESE 28 48 15 26 - - 0.0
05/08:00pm 12.5 6.6 7.4 71 2.7 ESE 28 43 15 23 - - 0.0
05/07:33pm 13.0 7.1 7.5 69 2.9 ESE 28 46 15 25 - - 0.0
05/07:30pm 13.1 6.8 7.3 68 3.1 ESE 30 46 16 25 - - 0.0
05/07:00pm 14.1 9.7 7.4 64 3.6 ESE 20 39 11 21 - - 0.0
05/06:30pm 14.7 10.0 7.7 63 3.8 ESE 22 39 12 21 - - 0.0
05/06:00pm 15.3 10.6 7.8 61 4.1 ESE 22 35 12 19 - - 0.0
05/05:30pm 15.5 10.1 7.8 60 4.2 ESE 26 43 14 23 - - 0.0
05/05:00pm 16.0 10.1 7.7 58 4.5 E 28 44 15 24 - - 0.0
05/04:30pm 16.2 11.4 8.7 61 4.1 ESE 24 39 13 21 - - 0.0
05/04:00pm 16.1 10.8 8.6 61 4.1 E 26 39 14 21 - - 0.0
05/03:30pm 15.7 9.1 7.7 59 4.3 ESE 32 48 17 26 - - 0.0
05/03:00pm 16.1 10.2 9.1 63 3.9 ESE 30 50 16 27 - - 0.0
05/02:30pm 15.3 8.7 7.6 60 4.1 E 32 43 17 23 - - 0.0
05/02:20pm 15.5 9.8 8.3 62 3.9 ESE 28 48 15 26 - - 0.0
05/02:00pm 14.8 9.8 8.1 64 3.6 ESE 24 50 13 27 - - 0.0
05/01:30pm 14.0 7.8 7.8 66 3.3 ESE 30 48 16 26 - - 0.0
05/01:27pm 13.7 7.7 7.0 64 3.5 ESE 28 48 15 26 - - 0.0
05/01:00pm 13.4 8.0 7.8 69 3.0 SE 26 43 14 23 - - 0.0
05/12:30pm 13.5 6.7 7.7 68 3.1 ESE 33 54 18 29 - - 0.0
05/12:23pm 12.8 6.9 7.5 70 2.8 SE 28 54 15 29 - - 0.0
05/12:00pm 12.3 6.6 8.4 77 2.1 SE 28 44 15 24 - - 0.0
05/11:30am 11.2 4.4 6.9 75 2.2 SE 32 50 17 27 - - 0.0
05/11:00am 11.0 3.8 7.7 80 1.7 ESE 35 54 19 29 - - 0.0
05/10:38am 9.8 3.0 6.7 81 1.6 ESE 32 56 17 30 - - 0.0
05/10:30am 9.6 2.8 6.9 83 1.4 SE 32 48 17 26 - - 0.0
05/10:04am 8.4 0.7 7.0 91 0.7 ESE 37 56 20 30 - - 0.0
05/10:00am 8.3 0.2 7.1 92 0.6 ESE 39 56 21 30 - - 0.0
05/09:30am 8.0 -0.3 6.3 89 0.8 ESE 39 63 21 34 - - 0.0
05/09:00am 7.7 -1.5 6.3 91 0.7 ESE 44 65 24 35 - - 0.0
05/08:30am 7.1 -3.7 6.0 93 0.5 ESE 52 76 28 41 - - 0.0
05/08:00am 6.6 -5.2 5.6 93 0.5 ESE 57 80 31 43 - - 0.0
05/07:30am 6.2 -5.7 5.2 93 0.5 ESE 57 78 31 42 - - 0.0
05/07:00am 6.1 -5.3 5.1 93 0.5 ESE 54 82 29 44 - - 0.0
05/06:30am 5.9 -5.5 4.7 92 0.6 ESE 54 74 29 40 - - 0.0
05/06:00am 6.0 -5.4 5.0 93 0.5 ESE 54 80 29 43 - - 0.0
05/05:30am 5.8 -6.0 4.8 93 0.5 ESE 56 78 30 42 - - 0.0
05/05:00am 5.6 -5.6 4.2 91 0.7 ESE 52 80 28 43 - - 0.0
05/04:30am 5.5 -6.0 4.3 92 0.6 ESE 54 78 29 42 - - 0.0
05/04:00am 5.7 -5.8 4.2 90 0.7 ESE 54 74 29 40 - - 0.0
05/03:30am 5.5 -5.3 4.0 90 0.7 ESE 50 70 27 38 - - 0.0
05/03:00am 5.9 -5.3 4.1 88 0.8 ESE 52 72 28 39 - - 0.0
05/02:30am 6.1 -5.4 4.4 89 0.8 ESE 54 72 29 39 - - 0.0
05/02:00am 6.5 -5.6 4.3 86 1.0 ESE 57 76 31 41 - - 0.0
05/01:30am 6.6 -5.3 4.4 86 1.0 ESE 56 78 30 42 - - 0.0
05/01:00am 7.0 -4.3 5.3 89 0.8 ESE 54 74 29 40 - - 0.0
05/12:30am 7.3 -2.4 5.6 89 0.8 ESE 46 65 25 35 - - 0.0
05/12:00am 7.9 -1.3 6.2 89 0.8 SE 44 67 24 36 - - 0.0

Latest Capital City Observations: Canberra | Sydney | Melbourne | Brisbane | Adelaide | Perth | Hobart | Darwin

Other Formats:

Comma delimited format used in spreadsheet applications
http://www.bom.gov.au/fwo/IDN60903/IDN60903.95916.axf

JavaScript Object Notation format (JSON) in row-major order
http://www.bom.gov.au/fwo/IDN60903/IDN60903.95916.json